Middlesboro, Kentucky
Current Conditions -  °F | °C
As of 1:15 AM on Tuesday 21 Oct 2014 (Local Time) from K1A6 Reporting Station
Thunderstorm Thunderstorm  
Wind Chill: 45°   Ceiling: Unl
Heat Index: 45°   Visibility: 7mi
Dew Point: 45°   Wind: 0mph
Humidity: 99%   Direction: NA
Pressure: 30"   Gusts: NA
Location:  36.61°N, 83.72°W
Report Text: K1A6 210515Z AUTO 00000KT 7SM VCTS SCT002 SCT100 07/07 A3000 RMK AO2 T00710070
Loading
Personal Weather Stations






























Interactive Weather Map
Tropical Storm Tracking
New forecast layout! Learn more

10-Day Weather Forecast

Advertisements
Track Severe Weather on mobile